Latest Weather Observations for Hopetoun North

IDW60801

Issued at 7:32 am WST Thursday 3 September 2015 (issued every 30 minutes, with the page automatically refreshed every 10 minutes)

About weather observations | Map of weather stations | Latest weather observations for WA | Other Formats
Station Details ID: 009961 Name: HOPETOUN NORTH Lat: -33.93 Lon: 120.13 Height: 26.0 m
Data from the previous 72 hours. | See also: Recent months at Hopetoun North
Date/Time
WST
Temp
°C
App
Temp
°C
Dew
Point
Rel
Hum
%
Delta-T
°C
Wind Press
QNH
hPa
Press
MSL
hPa
Rain
since 9 am
mm
Dir
 
Spd
km/h
Gust
km/h
Spd
kts
Gust
kts
03/07:30am 5.4 3.0 5.1 98 0.1 N 7 11 4 6 1027.2 1027.2 0.4
03/07:00am 2.1 -0.9 1.8 98 0.1 NE 7 9 4 5 1026.8 1026.8 0.4
03/06:30am 2.0 -1.0 1.9 99 0.0 NE 7 7 4 4 1026.5 1026.5 0.4
03/06:00am 2.5 -0.2 2.4 99 0.0 N 6 6 3 3 1026.4 1026.4 0.4
03/05:30am 2.8 -0.1 2.7 99 0.0 NNE 7 9 4 5 1026.3 1026.3 0.4
03/05:00am 3.6 1.8 3.5 99 0.0 NE 2 9 1 5 1026.0 1026.0 0.4
03/04:30am 5.0 3.9 4.9 99 0.0 CALM 0 4 0 2 1025.8 1025.8 0.4
03/04:00am 5.7 4.3 5.6 99 0.0 NNW 2 2 1 1 1026.1 1026.1 0.4
03/03:30am 5.7 3.6 5.6 99 0.0 NNW 6 6 3 3 1026.2 1026.2 0.4
03/03:00am 5.8 3.7 5.7 99 0.0 NNW 6 6 3 3 1026.2 1026.2 0.4
03/02:30am 5.7 4.7 5.6 99 0.0 CALM 0 0 0 0 1026.2 1026.2 0.4
03/02:00am 6.2 5.3 6.1 99 0.0 CALM 0 2 0 1 1026.4 1026.4 0.4
03/01:30am 6.4 5.2 6.3 99 0.0 NE 2 2 1 1 1026.6 1026.6 0.4
03/01:00am 6.8 5.3 6.7 99 0.0 NE 4 6 2 3 1026.6 1026.6 0.4
03/12:30am 6.8 6.0 6.5 98 0.1 CALM 0 2 0 1 1026.5 1026.5 0.4
03/12:00am 7.0 5.5 6.6 97 0.2 NNE 4 6 2 3 1026.6 1026.6 0.4
 
Date/Time
WST
Temp
°C
App
Temp
°C
Dew
Point
Rel
Hum
%
Delta-T
°C
Wind Press
QNH
hPa
Press
MSL
hPa
Rain
since 9 am
mm
Dir
 
Spd
km/h
Gust
km/h
Spd
kts
Gust
kts
02/11:30pm 7.3 5.8 6.7 96 0.3 NNW 4 6 2 3 1026.8 1026.8 0.4
02/11:00pm 7.4 6.3 6.7 95 0.3 N 2 4 1 2 1027.4 1027.4 0.2
02/10:30pm 7.4 5.5 6.5 94 0.4 NNW 6 9 3 5 1027.4 1027.4 0.2
02/10:00pm 7.5 5.3 6.1 91 0.6 NNW 7 11 4 6 1027.3 1027.3 0.2
02/09:30pm 7.5 5.3 6.0 90 0.7 N 7 9 4 5 1027.4 1027.4 0.2
02/09:00pm 7.7 5.7 6.2 90 0.7 N 6 7 3 4 1027.6 1027.6 0.2
02/08:30pm 7.9 5.3 6.0 88 0.9 N 9 15 5 8 1027.6 1027.6 0.2
02/08:00pm 8.2 6.1 6.0 86 1.0 NNW 6 9 3 5 1027.4 1027.4 0.2
02/07:30pm 9.4 6.5 4.6 72 2.1 ESE 9 13 5 7 1027.2 1027.2 0.2
02/07:00pm 9.3 6.0 4.7 73 2.0 E 11 17 6 9 1026.7 1026.7 0.2
02/06:30pm 8.9 5.9 4.3 73 2.0 ESE 9 15 5 8 1026.3 1026.3 0.2
02/06:00pm 8.6 5.0 5.2 79 1.5 ESE 13 20 7 11 1026.1 1026.1 0.2
02/05:30pm 8.8 5.1 6.1 83 1.2 SE 15 24 8 13 1025.9 1025.9 0.2
02/05:00pm 9.3 5.6 4.7 73 2.0 SSE 13 20 7 11 1025.7 1025.7 0.2
02/04:30pm 9.9 6.7 5.1 72 2.2 SE 11 17 6 9 1025.5 1025.5 0.2
02/04:00pm 10.2 6.6 4.8 69 2.4 ESE 13 20 7 11 1025.3 1025.3 0.2
02/03:30pm 9.3 4.5 5.7 78 1.6 SE 20 30 11 16 1025.5 1025.5 0.2
02/03:00pm 10.5 7.5 4.2 65 2.8 SSE 9 15 5 8 1025.2 1025.2 0.2
02/02:30pm 10.0 5.2 4.6 69 2.4 SSE 19 24 10 13 1025.4 1025.4 0.2
02/02:00pm 9.5 5.1 6.4 81 1.4 SSE 19 33 10 18 1025.5 1025.5 0.2
02/01:30pm 9.1 5.4 6.5 84 1.2 SSE 15 24 8 13 1025.6 1025.6 0.2
02/01:00pm 11.6 8.1 5.3 65 2.9 S 13 24 7 13 1025.6 1025.6 0.2
02/12:30pm 11.9 7.3 3.9 58 3.6 SSE 17 28 9 15 1025.8 1025.8 0.2
02/12:00pm 12.6 7.8 4.8 59 3.6 S 19 26 10 14 1025.9 1025.9 0.2
02/11:30am 11.4 6.3 3.2 57 3.6 SSE 19 26 10 14 1026.4 1026.4 0.2
02/11:00am 11.7 6.7 3.7 58 3.5 SSE 19 26 10 14 1026.6 1026.6 0.0
02/10:30am 10.9 6.1 4.4 64 2.9 SSE 19 26 10 14 1026.6 1026.6 0.0
02/10:00am 10.8 5.6 3.8 62 3.1 S 20 28 11 15 1026.5 1026.5 0.0
02/09:30am 11.3 6.9 4.5 63 3.1 S 17 24 9 13 1026.6 1026.6 0.0
02/09:00am 10.2 5.2 3.5 63 2.9 S 19 28 10 15 1026.6 1026.6 1.0
02/08:30am 9.8 4.5 4.8 71 2.2 S 22 33 12 18 1026.0 1026.0 1.0
02/08:00am 9.4 5.0 5.0 74 2.0 SSE 17 24 9 13 1025.8 1025.8 1.0
02/07:30am 8.9 4.3 3.7 70 2.3 SSE 17 26 9 14 1025.4 1025.4 1.0
02/07:00am 7.8 1.8 5.4 85 1.1 S 26 39 14 21 1025.2 1025.2 1.0
02/06:52am 7.8 1.5 5.9 88 0.9 S 28 39 15 21 1025.1 1025.1 1.0
02/06:30am 7.0 3.7 6.4 96 0.3 SW 13 19 7 10 1024.7 1024.7 1.0
02/06:00am 7.4 2.3 6.0 91 0.6 SSW 22 35 12 19 1024.5 1024.5 1.0
02/05:30am 7.8 3.0 4.4 79 1.5 SSW 19 28 10 15 1024.1 1024.1 0.8
02/05:02am 7.8 1.4 5.3 84 1.1 SSW 28 46 15 25 1023.9 1023.9 0.8
02/05:00am 8.5 2.8 5.1 79 1.5 SSW 24 44 13 24 1023.9 1023.9 0.8
02/04:30am 7.9 2.7 2.6 69 2.2 SSW 19 28 10 15 1023.9 1023.9 0.8
02/04:00am 8.4 2.4 3.5 71 2.1 SSW 24 32 13 17 1023.8 1023.8 0.8
02/03:30am 8.3 4.6 4.5 77 1.7 SSW 13 28 7 15 1023.7 1023.7 0.8
02/03:00am 7.9 3.4 4.1 77 1.6 SSW 17 24 9 13 1023.7 1023.7 0.8
02/02:30am 7.6 1.9 4.9 83 1.2 SSW 24 41 13 22 1023.7 1023.7 0.8
02/02:00am 7.8 2.8 3.7 75 1.8 S 19 28 10 15 1023.8 1023.8 0.6
02/01:30am 7.5 2.5 3.7 77 1.6 SSW 19 26 10 14 1023.7 1023.7 0.6
02/01:00am 6.4 3.5 4.9 90 0.7 SSW 9 15 5 8 1023.7 1023.7 0.6
02/12:30am 8.3 2.5 4.3 76 1.8 SSW 24 43 13 23 1023.8 1023.8 0.4
02/12:00am 8.2 2.4 2.2 66 2.5 SSW 22 28 12 15 1023.6 1023.6 0.4
 
Date/Time
WST
Temp
°C
App
Temp
°C
Dew
Point
Rel
Hum
%
Delta-T
°C
Wind Press
QNH
hPa
Press
MSL
hPa
Rain
since 9 am
mm
Dir
 
Spd
km/h
Gust
km/h
Spd
kts
Gust
kts
01/11:30pm 7.7 2.5 3.6 75 1.8 SSW 20 33 11 18 1023.6 1023.6 0.4
01/11:00pm 7.5 2.7 2.8 72 2.0 SSW 17 26 9 14 1023.8 1023.8 0.2
01/10:30pm 8.1 1.6 2.4 67 2.4 SSW 26 35 14 19 1023.9 1023.9 0.2
01/10:00pm 8.1 1.9 1.9 65 2.5 S 24 39 13 21 1023.7 1023.7 0.2
01/09:30pm 7.5 1.2 3.7 77 1.6 S 26 41 14 22 1023.7 1023.7 0.2
01/09:00pm 8.0 1.6 1.0 61 2.8 SSW 24 33 13 18 1023.6 1023.6 0.2
01/08:30pm 8.3 0.3 0.1 56 3.2 SSW 32 44 17 24 1023.4 1023.4 0.2
01/08:09pm 8.6 0.7 2.4 65 2.6 SSW 33 52 18 28 1023.1 1023.1 0.2
01/08:00pm 8.6 1.0 0.3 56 3.3 SSW 30 43 16 23 1023.1 1023.1 0.2
01/07:30pm 8.4 1.8 1.8 63 2.7 SSW 26 43 14 23 1022.7 1022.7 0.2
01/07:00pm 7.9 1.8 0.6 60 2.9 SSW 22 32 12 17 1022.4 1022.4 0.2
01/06:30pm 7.7 -0.1 2.6 70 2.1 SSW 33 54 18 29 1022.0 1022.0 0.2
01/06:26pm 8.2 1.1 1.1 61 2.9 SSW 28 52 15 28 1021.9 1021.9 0.2
01/06:00pm 8.1 1.4 -1.4 51 3.6 SSW 24 35 13 19 1021.5 1021.5 0.2
01/05:41pm 8.2 1.1 1.4 62 2.8 SSW 28 50 15 27 1021.3 1021.3 0.2
01/05:30pm 8.0 1.1 0.3 58 3.1 SSW 26 35 14 19 1021.1 1021.1 0.2
01/05:00pm 8.6 0.5 -0.2 54 3.5 SSW 32 43 17 23 1020.6 1020.6 0.2
01/04:30pm 8.1 0.6 1.0 61 2.9 SSW 30 43 16 23 1020.4 1020.4 0.2
01/04:00pm 9.0 0.8 0.2 54 3.5 SSW 33 44 18 24 1020.0 1019.9 0.2
01/03:30pm 9.0 1.2 1.7 60 3.0 SSW 32 46 17 25 1019.8 1019.7 0.2
01/03:10pm 7.1 0.5 4.2 82 1.3 SSW 28 48 15 26 1019.6 1019.5 0.2
01/03:00pm 6.9 0.9 3.2 77 1.6 SW 24 43 13 23 1019.8 1019.7 0.0
01/02:42pm 9.7 2.6 1.4 56 3.4 SSW 28 48 15 26 1019.5 1019.4 0.0
01/02:35pm 9.1 0.5 2.7 64 2.7 SSW 37 56 20 30 1019.5 1019.4 0.0
01/02:30pm 8.2 -1.7 1.4 62 2.8 SW 43 63 23 34 1019.4 1019.3 0.0
01/02:21pm 9.2 1.3 2.3 62 2.9 SW 33 54 18 29 1019.2 1019.1 0.0
01/02:00pm 7.7 0.9 0.9 62 2.7 SW 26 48 14 26 1019.1 1019.0 0.0
01/01:37pm 8.9 0.2 2.3 63 2.8 SSW 37 72 20 39 1018.7 1018.6 0.0
01/01:30pm 9.8 1.0 1.2 55 3.5 SSW 37 52 20 28 1018.6 1018.5 0.0
01/01:00pm 8.9 -0.3 -1.5 48 4.0 SSW 37 56 20 30 1018.3 1018.2 0.0
01/12:30pm 9.7 0.7 0.1 51 3.9 SSW 37 56 20 30 1018.2 1018.1 0.0
01/12:00pm 9.5 -0.8 0.1 52 3.8 SW 44 69 24 37 1018.2 1018.1 0.0
01/11:41am 9.5 -1.1 0.9 55 3.5 SSW 46 65 25 35 1017.9 1017.8 0.0
01/11:30am 10.3 0.3 1.2 53 3.8 SSW 43 56 23 30 1017.8 1017.7 0.0
01/11:00am 9.2 -0.7 1.9 60 3.0 SSW 43 63 23 34 1017.8 1017.7 0.0
01/10:53am 9.9 0.0 1.5 56 3.5 SSW 43 63 23 34 1017.7 1017.6 0.0
01/10:30am 10.1 0.2 1.7 56 3.5 SSW 43 57 23 31 1017.4 1017.3 0.0
01/10:11am 10.5 0.7 2.1 56 3.6 SSW 43 61 23 33 1017.1 1017.0 0.0
01/10:00am 9.8 -0.9 0.4 52 3.8 SSW 46 63 25 34 1017.1 1017.0 0.0
01/09:35am 9.4 -0.8 0.8 55 3.5 SSW 44 67 24 36 1016.7 1016.6 0.0
01/09:30am 10.0 0.1 1.4 55 3.6 SSW 43 57 23 31 1016.8 1016.7 0.0
01/09:00am 8.1 -3.0 2.6 68 2.3 SSW 50 69 27 37 1016.5 1016.4 6.8
01/08:30am 9.3 -1.3 1.0 56 3.4 SW 46 67 25 36 1016.1 1016.0 6.6
01/08:24am 8.9 -2.0 1.1 58 3.2 SSW 48 67 26 36 1016.0 1015.9 6.6
01/08:00am 7.8 -2.2 2.3 68 2.3 SSW 44 63 24 34 1015.6 1015.5 6.6
01/07:35am 7.6 -1.8 2.1 68 2.3 SSW 41 59 22 32 1015.3 1015.3 6.6
01/07:30am 7.8 -2.0 2.1 67 2.4 SW 43 57 23 31 1015.2 1015.2 6.6
01/07:09am 7.2 -0.3 3.4 77 1.6 SW 32 54 17 29 1014.9 1014.9 6.6
01/07:00am 6.7 -1.0 3.5 80 1.4 SW 33 52 18 28 1014.7 1014.7 6.6
01/06:30am 6.6 -4.3 3.8 82 1.2 SSW 50 78 27 42 1013.9 1013.9 6.4
01/06:15am 5.6 -5.6 3.8 88 0.8 SSW 52 72 28 39 1013.8 1013.8 6.4
01/06:08am 6.2 -3.6 3.2 81 1.3 SW 44 72 24 39 1013.5 1013.5 6.2
01/06:00am 7.0 -1.5 2.9 75 1.7 SW 37 59 20 32 1013.6 1013.6 6.2
01/05:42am 6.1 -3.3 2.2 76 1.6 SW 41 61 22 33 1013.3 1013.3 6.2
01/05:30am 5.3 -2.7 3.6 89 0.7 SW 35 61 19 33 1013.2 1013.2 6.2
01/05:27am 4.5 -2.2 3.9 96 0.3 WSW 28 59 15 32 1013.4 1013.4 6.2
01/05:19am 4.7 -2.7 4.0 95 0.3 SW 32 54 17 29 1013.3 1013.3 6.0
01/05:01am 5.8 -2.8 4.4 91 0.6 SW 39 70 21 38 1012.7 1012.7 5.8
01/05:00am 5.6 -2.3 4.2 91 0.6 SW 35 65 19 35 1012.7 1012.7 5.8
01/04:30am 5.5 -1.8 5.4 99 0.0 SW 33 67 18 36 1012.6 1012.6 4.8
01/04:24am 4.5 -4.3 3.8 95 0.3 SW 39 67 21 36 1012.6 1012.6 4.8
01/04:00am 4.6 -2.5 3.6 93 0.4 WSW 30 61 16 33 1012.8 1012.8 2.8
01/03:53am 4.2 -2.6 3.2 93 0.4 W 28 50 15 27 1012.7 1012.7 2.8
01/03:30am 4.1 -2.1 2.1 87 0.8 W 24 37 13 20 1012.4 1012.4 2.8
01/03:00am 4.5 -2.4 2.8 89 0.7 W 28 46 15 25 1012.5 1012.5 2.8
01/02:44am 4.6 -2.1 3.4 92 0.5 W 28 48 15 26 1012.4 1012.4 2.8
01/02:30am 4.3 -2.1 3.0 91 0.5 W 26 39 14 21 1012.5 1012.5 2.8
01/02:00am 5.7 -1.8 3.4 85 1.0 WSW 32 52 17 28 1012.3 1012.3 2.8
01/01:38am 5.0 -2.9 4.1 94 0.4 WSW 35 57 19 31 1012.8 1012.8 2.6
01/01:30am 4.9 -2.5 4.2 95 0.3 W 32 50 17 27 1013.0 1013.0 2.4
01/01:08am 6.3 -0.5 4.9 91 0.6 SW 30 48 16 26 1012.4 1012.4 2.2
01/01:00am 6.0 -1.9 4.6 91 0.6 SW 35 48 19 26 1012.4 1012.4 2.2
01/12:31am 5.3 -2.9 4.7 96 0.3 WSW 37 69 20 37 1012.6 1012.6 1.6
01/12:30am 5.3 -2.5 4.7 96 0.3 WSW 35 52 19 28 1012.7 1012.7 1.6
01/12:00am 5.8 -0.8 4.4 91 0.6 W 28 48 15 26 1012.5 1012.5 0.4
 
Date/Time
WST
Temp
°C
App
Temp
°C
Dew
Point
Rel
Hum
%
Delta-T
°C
Wind Press
QNH
hPa
Press
MSL
hPa
Rain
since 9 am
mm
Dir
 
Spd
km/h
Gust
km/h
Spd
kts
Gust
kts
31/11:30pm 5.8 -0.5 4.0 88 0.8 W 26 37 14 20 1012.4 1012.4 0.4
31/11:00pm 5.7 -1.0 3.5 86 0.9 W 28 41 15 22 1012.5 1012.5 0.4
31/10:30pm 5.8 -0.2 3.6 86 0.9 W 24 37 13 20 1012.7 1012.7 0.4
31/10:00pm 5.6 0.5 4.1 90 0.6 W 20 32 11 17 1012.8 1012.8 0.4
31/09:30pm 6.8 0.6 6.1 95 0.3 W 28 41 15 22 1012.7 1012.7 0.4
31/09:00pm 6.8 2.0 4.8 87 0.9 W 19 32 10 17 1012.8 1012.8 0.2
31/08:30pm 7.1 1.8 4.8 85 1.0 WNW 22 32 12 17 1012.7 1012.7 0.2
31/08:00pm 8.2 2.7 5.7 84 1.1 W 24 41 13 22 1012.5 1012.5 0.2
31/07:30pm 7.7 1.1 6.0 89 0.8 W 30 44 16 24 1012.4 1012.4 0.2
31/07:20pm 8.2 1.9 5.7 84 1.1 W 28 48 15 26 1012.3 1012.3 0.2
31/07:00pm 8.0 3.5 6.0 87 0.9 WNW 19 28 10 15 1012.0 1012.0 0.2
31/06:30pm 8.2 4.5 6.2 87 0.9 WNW 15 24 8 13 1011.7 1011.7 0.2
31/06:00pm 8.6 5.0 6.6 87 0.9 WNW 15 22 8 12 1011.5 1011.5 0.2
31/05:30pm 8.1 3.7 6.6 90 0.7 WNW 19 28 10 15 1011.4 1011.4 0.2
31/05:00pm 7.7 3.3 6.6 93 0.5 WNW 19 28 10 15 1011.2 1011.2 0.2
31/04:30pm 8.6 1.7 6.6 87 0.9 W 32 44 17 24 1011.1 1011.1 0.0
31/04:24pm 8.9 1.0 6.3 84 1.2 W 37 61 20 33 1011.2 1011.2 0.0
31/04:11pm 13.9 7.4 2.5 46 5.0 WNW 26 50 14 27 1010.5 1010.5 0.0
31/04:00pm 14.9 9.4 1.8 41 5.8 NW 20 39 11 21 1010.0 1010.0 0.0
31/03:30pm 14.8 9.2 1.3 40 5.9 NW 20 39 11 21 1010.1 1010.1 0.0
31/03:00pm 15.3 9.3 1.1 38 6.2 NW 22 35 12 19 1010.3 1010.3 0.0
31/02:30pm 15.0 9.6 1.5 40 5.9 WNW 19 33 10 18 1010.7 1010.7 0.0
31/02:00pm 16.3 10.9 2.7 40 6.2 NW 20 37 11 20 1011.1 1011.1 0.0
31/01:30pm 14.8 9.4 2.4 43 5.5 NW 20 37 11 20 1011.9 1011.9 0.0
31/01:00pm 14.3 8.9 2.5 45 5.2 NW 20 33 11 18 1012.3 1012.3 0.0
31/12:30pm 13.7 8.2 2.0 45 5.1 WNW 20 35 11 19 1012.8 1012.8 0.0
31/12:00pm 13.6 8.8 2.8 48 4.8 WNW 17 26 9 14 1013.5 1013.5 0.0
31/11:30am 14.5 9.3 3.3 47 5.1 NW 20 32 11 17 1014.1 1014.1 0.0
31/11:00am 14.0 9.4 3.8 50 4.6 WNW 17 28 9 15 1014.8 1014.8 0.0
31/10:30am 13.6 9.4 5.7 59 3.7 NNW 17 28 9 15 1015.5 1015.4 0.0
31/10:00am 13.3 9.2 6.4 63 3.3 NNW 17 26 9 14 1016.0 1015.9 0.0
31/09:30am 11.7 7.2 6.2 69 2.6 NNW 19 32 10 17 1016.4 1016.3 0.0
31/09:00am 10.9 6.3 6.3 73 2.2 N 20 35 11 19 1016.9 1016.9 0.0
31/08:30am 10.4 5.9 6.0 74 2.0 N 19 26 10 14 1017.1 1017.1 0.0
31/08:00am 9.6 5.8 6.0 78 1.7 N 15 24 8 13 1017.2 1017.2 0.0

Other Formats:

Comma delimited format used in spreadsheet applications
http://www.bom.gov.au/fwo/IDW60801/IDW60801.95635.axf

JavaScript Object Notation format (JSON) in row-major order
http://www.bom.gov.au/fwo/IDW60801/IDW60801.95635.json